Time;durP1;ratioP1;P1;durP2;ratioP2;P2;SDS_P1;SDS_P2;PMS_P1;PMS_P2;Temp;Humidity;BMP_temperature;BMP_pressure;BME280_temperature;BME280_humidity;BME280_pressure;Samples;Min_cycle;Max_cycle;Signal;HPM_P1;HPM_P2
2023/04/10 00:00:23;;;;;;;21.00;14.63;;;1.70;99.90;0.80;101390;;;;541732;262;24181;-78
2023/04/10 00:02:51;;;;;;;25.03;15.80;;;1.70;99.90;0.80;101393;;;;551077;258;24130;-79
2023/04/10 00:05:19;;;;;;;28.63;15.30;;;1.70;99.90;0.70;101396;;;;537896;263;24148;-78
2023/04/10 00:07:47;;;;;;;25.40;14.50;;;1.70;99.90;0.70;101391;;;;550855;258;24149;-78
2023/04/10 00:10:15;;;;;;;25.47;14.80;;;1.70;99.90;0.70;101385;;;;540969;263;24144;-78
2023/04/10 00:12:44;;;;;;;20.60;14.20;;;1.70;99.90;0.70;101390;;;;550542;257;24151;-78
2023/04/10 00:15:11;;;;;;;25.60;14.67;;;1.60;99.90;0.70;101391;;;;540623;263;24128;-78
2023/04/10 00:17:39;;;;;;;27.93;15.77;;;1.60;99.90;0.60;101387;;;;550582;258;24144;-78
2023/04/10 00:20:11;;;;;;;25.00;15.17;;;1.60;99.90;0.60;101388;;;;540630;263;24129;-78
2023/04/10 00:22:35;;;;;;;25.17;15.13;;;1.60;99.90;0.60;101379;;;;550327;258;24141;-78
2023/04/10 00:25:05;;;;;;;23.27;13.57;;;1.60;99.90;0.60;101387;;;;540469;263;24158;-78
2023/04/10 00:27:31;;;;;;;29.67;19.27;;;1.50;99.90;0.60;101381;;;;545335;258;39402;-78
2023/04/10 00:30:01;;;;;;;22.23;10.60;;;1.60;99.90;0.70;101377;;;;540509;263;24147;-79
2023/04/10 00:32:29;;;;;;;20.50;14.70;;;1.60;99.90;0.70;101377;;;;550185;258;24125;-80
2023/04/10 00:34:56;;;;;;;23.07;16.13;;;1.60;99.90;0.70;101376;;;;540764;263;24201;-78
2023/04/10 00:37:25;;;;;;;23.93;15.87;;;1.60;99.90;0.70;101375;;;;550300;258;24134;-78
2023/04/10 00:39:52;;;;;;;22.97;16.47;;;1.60;99.90;0.70;101370;;;;540349;263;24144;-79
2023/04/10 00:42:20;;;;;;;25.50;16.90;;;1.60;99.90;0.70;101370;;;;550321;258;24101;-79
2023/04/10 00:44:48;;;;;;;26.23;15.90;;;1.60;99.90;0.70;101373;;;;537251;263;24223;-78
2023/04/10 00:47:16;;;;;;;20.70;14.67;;;1.60;99.90;0.70;101370;;;;550407;258;24107;-78
2023/04/10 00:49:47;;;;;;;23.13;15.67;;;1.60;99.90;0.70;101372;;;;558344;255;24145;-79
2023/04/10 00:52:15;;;;;;;31.50;17.77;;;1.60;99.90;0.60;101367;;;;540739;262;24184;-79
2023/04/10 00:54:43;;;;;;;29.50;17.17;;;1.60;99.90;0.60;101369;;;;540575;263;24180;-79
2023/04/10 00:57:08;;;;;;;29.87;17.50;;;1.60;99.90;0.60;101376;;;;540612;259;24204;-79
2023/04/10 00:59:36;;;;;;;31.63;18.43;;;1.50;99.90;0.60;101379;;;;542087;262;24138;-78
2023/04/10 01:02:04;;;;;;;27.47;18.03;;;1.50;99.90;0.60;101376;;;;541679;262;24181;-78
2023/04/10 01:04:34;;;;;;;31.37;20.23;;;1.50;99.90;0.50;101372;;;;549297;260;24130;-78
2023/04/10 01:07:00;;;;;;;34.57;19.93;;;1.50;99.90;0.50;101367;;;;541103;262;24137;-78
2023/04/10 01:09:45;;;;;;;34.30;19.53;;;1.50;99.90;0.50;101370;;;;537802;262;24163;-78
2023/04/10 01:12:31;;;;;;;25.17;16.63;;;1.40;99.90;0.50;101369;;;;550598;258;24126;-78
2023/04/10 01:15:12;;;;;;;26.03;15.63;;;1.40;99.90;0.50;101372;;;;550053;258;24125;-77
2023/04/10 01:18:00;;;;;;;20.23;14.07;;;1.40;99.90;0.50;101360;;;;540271;263;24156;-79
2023/04/10 01:20:28;;;;;;;23.67;15.03;;;1.40;99.90;0.50;101369;;;;550336;258;24152;-80
2023/04/10 01:23:31;;;;;;;16.33;14.00;;;1.40;99.90;0.40;101368;;;;540758;263;24165;-76
2023/04/10 01:26:04;;;;;;;22.80;16.90;;;1.40;99.90;0.40;101366;;;;551695;258;24128;-78
2023/04/10 01:28:41;;;;;;;29.77;18.93;;;1.40;99.90;0.50;101369;;;;538464;263;24161;-79
2023/04/10 01:31:08;;;;;;;44.27;24.53;;;1.40;99.90;0.40;101367;;;;550655;258;24134;-79
2023/04/10 01:33:40;;;;;;;44.08;28.08;;;1.40;99.90;0.50;101366;;;;535710;263;35698;-79
2023/04/10 01:36:08;;;;;;;28.23;12.73;;;1.40;99.90;0.50;101372;;;;549609;258;24181;-78
2023/04/10 01:38:36;;;;;;;31.80;17.30;;;1.50;99.90;0.50;101360;;;;540241;263;24163;-78
2023/04/10 01:41:05;;;;;;;37.07;19.80;;;1.50;99.90;0.50;101365;;;;558131;257;24283;-79
2023/04/10 01:43:33;;;;;;;34.57;18.57;;;1.50;99.90;0.50;101362;;;;540413;263;24208;-80
2023/04/10 01:46:01;;;;;;;28.90;18.13;;;1.40;99.90;0.50;101365;;;;550178;258;24126;-78
2023/04/10 01:48:29;;;;;;;26.30;17.40;;;1.50;99.90;0.50;101372;;;;540364;263;24145;-78
2023/04/10 01:50:56;;;;;;;17.47;13.63;;;1.50;99.90;0.50;101371;;;;549834;258;24123;-80
2023/04/10 01:53:27;;;;;;;26.35;18.08;;;1.40;99.90;0.50;101364;;;;535565;263;46367;-79
2023/04/10 01:55:53;;;;;;;15.47;7.97;;;1.50;99.90;0.50;101367;;;;541726;261;24196;-78
2023/04/10 01:58:20;;;;;;;16.30;8.40;;;1.50;99.90;0.50;101364;;;;540882;262;24133;-79
2023/04/10 02:00:48;;;;;;;19.77;13.30;;;1.50;99.90;0.50;101357;;;;550622;258;24155;-78
2023/04/10 02:03:16;;;;;;;19.63;14.73;;;1.50;99.90;0.50;101363;;;;563990;244;24092;-74
2023/04/10 02:06:21;;;;;;;24.63;16.07;;;1.50;99.90;0.50;101364;;;;582304;247;24097;-73
2023/04/10 02:08:57;;;;;;;21.80;17.13;;;1.40;99.90;0.50;101362;;;;573783;245;24131;-73
2023/04/10 02:11:31;;;;;;;28.25;21.85;;;1.40;99.90;0.40;101362;;;;581079;244;35136;-74
2023/04/10 02:13:59;;;;;;;21.00;11.13;;;1.40;99.90;0.40;101364;;;;575386;245;24055;-73
2023/04/10 02:16:27;;;;;;;18.00;10.60;;;1.40;99.90;0.40;101358;;;;577051;245;24064;-79
2023/04/10 02:18:59;;;;;;;24.23;16.33;;;1.30;99.90;0.40;101365;;;;577195;245;24083;-78
2023/04/10 02:21:25;;;;;;;22.60;15.10;;;1.30;99.90;0.30;101365;;;;576801;245;24077;-81
2023/04/10 02:23:53;;;;;;;25.67;14.90;;;1.30;99.90;0.30;101364;;;;582735;244;24108;-79
2023/04/10 02:26:21;;;;;;;22.77;11.73;;;1.30;99.90;0.30;101362;;;;581023;245;35266;-77
2023/04/10 02:28:49;;;;;;;19.57;8.93;;;1.30;99.90;0.30;101355;;;;582518;246;24101;-79
2023/04/10 02:31:17;;;;;;;15.80;8.93;;;1.20;99.90;0.30;101360;;;;585907;245;24049;-73
2023/04/10 02:33:46;;;;;;;18.00;10.87;;;1.20;99.90;0.30;101357;;;;576705;245;24053;-74
2023/04/10 02:36:13;;;;;;;17.20;12.93;;;1.20;99.90;0.20;101361;;;;582199;246;24083;-76
2023/04/10 02:38:41;;;;;;;18.50;13.10;;;1.20;99.90;0.20;101359;;;;585587;245;25110;-74
2023/04/10 02:41:09;;;;;;;17.03;12.67;;;1.20;99.90;0.20;101373;;;;582456;246;24105;-74
2023/04/10 02:43:41;;;;;;;16.40;12.63;;;1.20;99.90;0.20;101361;;;;585684;245;24072;-76
2023/04/10 02:46:08;;;;;;;17.23;13.30;;;1.20;99.90;0.20;101359;;;;576022;245;24074;-77
2023/04/10 02:48:34;;;;;;;18.52;11.35;;;1.10;99.90;0.20;101371;;;;571374;245;35248;-78
2023/04/10 02:51:02;;;;;;;14.03;8.17;;;1.10;99.90;0.20;101370;;;;581964;247;24100;-74
2023/04/10 02:53:30;;;;;;;15.07;10.07;;;1.10;99.90;0.20;101369;;;;577463;245;24076;-78
2023/04/10 02:55:58;;;;;;;16.47;12.33;;;1.10;99.90;0.20;101363;;;;575988;245;24082;-75
2023/04/10 02:58:30;;;;;;;17.90;12.43;;;1.20;99.90;0.20;101370;;;;585528;244;24091;-75
2023/04/10 03:00:56;;;;;;;16.10;11.53;;;1.10;99.90;0.20;101369;;;;567831;249;24251;-76
2023/04/10 03:03:23;;;;;;;17.67;12.67;;;1.20;99.90;0.20;101366;;;;576256;248;24171;-74
2023/04/10 03:05:51;;;;;;;17.60;11.73;;;1.20;99.90;0.20;101371;;;;568390;249;24076;-73
2023/04/10 03:08:18;;;;;;;16.07;11.63;;;1.20;99.90;0.20;101352;;;;576956;248;24115;-74
2023/04/10 03:10:50;;;;;;;17.77;11.63;;;1.10;99.90;0.20;101364;;;;576563;249;24090;-76
2023/04/10 03:13:14;;;;;;;15.87;10.93;;;1.10;99.90;0.10;101361;;;;567813;249;24123;-74
2023/04/10 03:15:45;;;;;;;17.87;12.37;;;1.10;99.90;0.10;101356;;;;567787;249;24080;-74
2023/04/10 03:18:10;;;;;;;17.07;12.27;;;1.10;99.90;0.10;101363;;;;587317;244;24114;-74
2023/04/10 03:20:38;;;;;;;15.23;10.10;;;1.10;99.90;0.10;101360;;;;568131;248;24088;-73
2023/04/10 03:23:07;;;;;;;16.37;13.27;;;1.00;99.90;0.10;101366;;;;564783;248;35282;-73
2023/04/10 03:25:35;;;;;;;11.07;5.80;;;1.10;99.90;0.10;101361;;;;575022;246;24058;-74
2023/04/10 03:28:03;;;;;;;8.20;6.20;;;1.00;99.90;0.10;101363;;;;563364;251;24105;-73
2023/04/10 03:30:34;;;;;;;12.43;8.30;;;1.00;99.90;0.10;101358;;;;563309;251;24101;-73
2023/04/10 03:33:05;;;;;;;19.17;11.47;;;1.00;99.90;0.10;101357;;;;563185;251;24088;-73
2023/04/10 03:35:30;;;;;;;13.80;10.63;;;1.00;99.90;0.10;101361;;;;573136;248;24094;-79
2023/04/10 03:37:58;;;;;;;17.53;10.87;;;1.00;99.90;0.10;101364;;;;563144;251;24081;-78
2023/04/10 03:40:26;;;;;;;14.77;10.67;;;1.00;99.90;0.10;101358;;;;573751;247;24068;-79
2023/04/10 03:42:54;;;;;;;14.73;11.60;;;1.00;99.90;0.10;101369;;;;573660;247;24071;-78
2023/04/10 03:45:21;;;;;;;17.87;11.80;;;1.00;99.90;0.00;101360;;;;573539;247;24052;-78
2023/04/10 03:47:49;;;;;;;14.87;11.00;;;1.00;99.90;0.10;101365;;;;573670;247;24059;-73
2023/04/10 03:50:17;;;;;;;16.73;11.10;;;1.00;99.90;0.10;101364;;;;573535;247;24080;-73
2023/04/10 03:52:48;;;;;;;17.40;11.40;;;1.00;99.90;0.10;101361;;;;573693;247;24064;-73
2023/04/10 03:55:17;;;;;;;16.90;11.23;;;1.00;99.90;0.10;101352;;;;573460;247;24055;-74
2023/04/10 03:57:41;;;;;;;15.73;10.87;;;1.10;99.90;0.20;101359;;;;573617;247;24095;-79
2023/04/10 04:00:09;;;;;;;14.60;10.83;;;1.10;99.90;0.20;101359;;;;583397;240;24020;-78
2023/04/10 04:02:37;;;;;;;13.47;10.97;;;1.20;99.90;0.20;101364;;;;575079;246;24127;-75
2023/04/10 04:05:05;;;;;;;13.83;10.73;;;1.20;99.90;0.30;101366;;;;584600;245;24065;-76
2023/04/10 04:07:33;;;;;;;13.00;10.13;;;1.20;99.90;0.30;101370;;;;584141;242;24053;-76
2023/04/10 04:10:01;;;;;;;13.70;10.20;;;1.20;99.90;0.30;101367;;;;574996;246;24107;-77
2023/04/10 04:12:29;;;;;;;16.50;10.73;;;1.20;99.90;0.30;101370;;;;589367;240;24040;-77
2023/04/10 04:14:57;;;;;;;15.47;10.87;;;1.30;99.90;0.40;101373;;;;584099;242;24043;-76
2023/04/10 04:17:25;;;;;;;15.30;9.97;;;1.30;99.90;0.40;101370;;;;574997;246;24058;-73
2023/04/10 04:19:53;;;;;;;13.93;9.97;;;1.40;99.90;0.50;101374;;;;598974;240;25116;-76
2023/04/10 04:22:21;;;;;;;13.40;10.30;;;1.40;99.90;0.60;101384;;;;579005;244;24075;-77
2023/04/10 04:24:52;;;;;;;13.40;9.27;;;1.50;99.90;0.60;101385;;;;570189;245;24082;-78
2023/04/10 04:27:20;;;;;;;14.93;10.13;;;1.50;99.90;0.70;101385;;;;585160;240;24119;-75
2023/04/10 04:29:45;;;;;;;15.53;10.30;;;1.60;99.90;0.80;101381;;;;567945;249;24043;-74
2023/04/10 04:32:13;;;;;;;13.37;10.10;;;1.70;99.90;0.80;101387;;;;579421;243;24097;-77
2023/04/10 04:34:41;;;;;;;12.13;9.07;;;1.70;99.90;0.90;101391;;;;580343;244;24106;-74
2023/04/10 04:37:09;;;;;;;12.07;9.20;;;1.80;99.90;1.00;101393;;;;580016;244;24078;-75
2023/04/10 04:39:37;;;;;;;9.63;6.70;;;1.90;99.90;1.10;101390;;;;579766;244;24053;-78
2023/04/10 04:42:06;;;;;;;9.70;6.07;;;2.00;99.90;1.20;101393;;;;579731;244;24049;-73
2023/04/10 04:44:33;;;;;;;9.37;6.03;;;2.00;99.90;1.30;101397;;;;579545;244;24056;-76
2023/04/10 04:47:01;;;;;;;10.23;6.57;;;2.10;99.90;1.30;101387;;;;579564;244;24102;-74
2023/04/10 04:49:29;;;;;;;7.87;4.73;;;2.20;99.90;1.40;101391;;;;579502;244;24049;-77
2023/04/10 04:51:58;;;;;;;7.00;5.33;;;2.40;99.90;1.60;101401;;;;579366;244;24039;-77
2023/04/10 04:54:25;;;;;;;6.63;4.47;;;2.40;99.90;1.70;101399;;;;579293;244;24083;-76
2023/04/10 04:56:53;;;;;;;8.33;5.10;;;2.50;99.90;1.80;101407;;;;579272;244;24071;-77
2023/04/10 04:59:21;;;;;;;9.50;5.97;;;2.70;99.90;2.00;101407;;;;578779;244;24153;-73
2023/04/10 05:01:49;;;;;;;12.83;5.43;;;2.80;99.90;3.10;101410;;;;578783;244;25115;-77
2023/04/10 05:04:20;;;;;;;12.37;6.80;;;3.70;99.90;4.90;101424;;;;578948;244;25115;-74
2023/04/10 05:06:48;;;;;;;13.77;7.50;;;5.30;99.90;6.70;101436;;;;575606;244;24072;-73
2023/04/10 05:09:14;;;;;;;16.10;7.27;;;8.80;99.90;8.50;101441;;;;575501;244;24075;-76
2023/04/10 05:11:42;;;;;;;14.93;7.90;;;8.80;99.90;10.00;101435;;;;578633;244;24109;-74
2023/04/10 05:14:10;;;;;;;7.27;6.07;;;10.50;99.90;11.40;101439;;;;578531;244;24053;-75
2023/04/10 05:16:37;;;;;;;7.03;5.37;;;11.90;99.90;12.70;101446;;;;587192;244;24044;-73
2023/04/10 05:19:05;;;;;;;8.27;5.23;;;13.20;99.90;13.90;101451;;;;587066;244;24062;-75
2023/04/10 05:21:36;;;;;;;6.67;5.23;;;14.50;99.90;15.10;101458;;;;587503;244;24175;-73
2023/04/10 05:24:01;;;;;;;6.80;5.10;;;15.60;99.90;16.00;101457;;;;587107;244;24086;-74
2023/04/10 05:26:29;;;;;;;6.53;5.10;;;16.60;99.90;16.90;101461;;;;587056;244;24053;-75
2023/04/10 05:28:58;;;;;;;5.63;4.93;;;18.40;99.90;17.80;101458;;;;587197;244;24053;-74
2023/04/10 05:31:30;;;;;;;7.80;5.60;;;18.30;99.90;18.50;101462;;;;587058;244;23075;-75
2023/04/10 05:33:54;;;;;;;6.60;5.03;;;19.10;99.90;19.20;101466;;;;578475;244;24061;-74
2023/04/10 05:36:22;;;;;;;5.97;5.37;;;19.80;94.30;20.00;101473;;;;587079;244;24046;-75
2023/04/10 05:38:50;;;;;;;7.87;5.07;;;20.60;89.50;20.80;101464;;;;578776;244;24075;-75
2023/04/10 05:41:18;;;;;;;7.50;6.13;;;21.40;79.20;21.60;101470;;;;587162;244;24041;-75
2023/04/10 05:43:46;;;;;;;6.67;6.03;;;23.00;68.90;22.40;101466;;;;587434;242;24026;-74
2023/04/10 05:46:14;;;;;;;10.30;5.43;;;22.90;68.80;23.00;101466;;;;588582;241;23082;-76
2023/04/10 05:48:42;;;;;;;8.70;6.13;;;23.60;63.60;23.60;101466;;;;588116;244;23066;-75
2023/04/10 05:51:10;;;;;;;6.37;5.27;;;24.20;59.40;24.10;101475;;;;588027;244;24076;-75
2023/04/10 05:53:38;;;;;;;6.57;5.53;;;24.70;57.60;24.50;101465;;;;587866;244;23077;-73
2023/04/10 05:56:07;;;;;;;6.07;5.20;;;25.20;54.40;24.60;101477;;;;587576;244;23153;-75
2023/04/10 05:58:35;;;;;;;5.77;5.27;;;25.20;54.10;25.10;101469;;;;579216;244;23079;-75
2023/04/10 06:01:07;;;;;;;6.20;5.60;;;25.90;51.90;25.40;101479;;;;588095;244;23056;-75
2023/04/10 06:03:31;;;;;;;4.97;4.47;;;25.90;51.90;26.10;101476;;;;578936;244;24072;-74
2023/04/10 06:05:59;;;;;;;5.07;4.67;;;26.50;51.10;26.90;101481;;;;587835;244;23068;-77
2023/04/10 06:08:27;;;;;;;7.55;4.65;;;27.30;50.20;27.70;101479;;;;588210;243;23087;-74
2023/04/10 06:10:56;;;;;;;4.32;3.92;;;28.10;48.80;28.20;101489;;;;579275;244;23048;-75
2023/04/10 06:13:23;;;;;;;5.20;4.65;;;28.70;47.20;28.60;101488;;;;587826;244;23059;-75
2023/04/10 06:15:54;;;;;;;4.82;4.45;;;29.00;46.10;29.00;101494;;;;587771;244;23066;-76
2023/04/10 06:18:19;;;;;;;4.30;3.95;;;29.40;44.90;29.60;101500;;;;579052;244;24049;-75
2023/04/10 06:20:47;;;;;;;5.72;5.12;;;30.00;44.30;30.30;101505;;;;587689;244;23054;-75
2023/04/10 06:23:15;;;;;;;4.65;4.25;;;30.80;43.20;31.00;101510;;;;587318;242;23113;-74
2023/04/10 06:25:42;;;;;;;4.10;3.80;;;31.50;42.20;31.60;101506;;;;587665;241;23055;-75
2023/04/10 06:28:10;;;;;;;4.62;4.22;;;32.00;41.40;32.10;101507;;;;578704;244;23065;-79
2023/04/10 06:30:38;;;;;;;4.40;4.03;;;32.50;40.50;32.60;101511;;;;578588;244;23073;-75
2023/04/10 06:33:06;;;;;;;4.70;4.18;;;33.00;39.80;33.00;101513;;;;587241;244;24064;-75
2023/04/10 06:35:35;;;;;;;4.80;4.25;;;33.50;38.90;33.30;101515;;;;587138;244;23102;-76
2023/04/10 06:38:03;;;;;;;4.43;4.07;;;34.00;38.20;33.60;101524;;;;587725;244;23061;-75
2023/04/10 06:40:32;;;;;;;4.20;3.90;;;34.00;38.10;34.00;101523;;;;578631;244;23076;-78
2023/04/10 06:42:59;;;;;;;5.82;4.15;;;34.40;37.30;34.60;101521;;;;587226;244;23070;-75
2023/04/10 06:45:26;;;;;;;4.05;3.65;;;34.90;36.80;35.10;101529;;;;587921;244;23082;-77
2023/04/10 06:47:55;;;;;;;3.72;3.42;;;35.40;35.50;35.10;101530;;;;579262;244;23188;-80
2023/04/10 06:50:22;;;;;;;2.83;2.62;;;35.50;35.30;35.10;101529;;;;579453;244;23117;-77
2023/04/10 06:52:52;;;;;;;3.67;2.95;;;35.50;35.10;35.30;101533;;;;587617;241;23095;-82
2023/04/10 06:55:22;;;;;;;3.17;2.72;;;35.50;34.90;35.80;101532;;;;579769;242;23084;-81
2023/04/10 06:57:46;;;;;;;3.08;2.78;;;35.90;34.60;36.10;101531;;;;580138;244;23082;-77
2023/04/10 07:00:18;;;;;;;4.43;2.45;;;36.40;33.60;36.30;101535;;;;588123;241;23109;-78
2023/04/10 07:02:42;;;;;;;2.85;2.60;;;36.70;33.70;36.70;101538;;;;577597;244;23073;-76
2023/04/10 07:05:10;;;;;;;2.78;2.35;;;37.10;33.20;37.00;101538;;;;588211;241;23059;-75
2023/04/10 07:07:38;;;;;;;2.92;2.60;;;37.50;32.80;37.30;101535;;;;588082;244;23055;-76
2023/04/10 07:10:09;;;;;;;2.37;2.28;;;37.70;32.50;37.50;101537;;;;588084;241;23106;-74
2023/04/10 07:12:34;;;;;;;2.50;2.40;;;37.80;32.10;37.80;101535;;;;579172;244;24077;-78
2023/04/10 07:15:02;;;;;;;2.65;2.50;;;38.10;31.70;37.60;101529;;;;587193;240;23246;-77
2023/04/10 07:17:30;;;;;;;2.87;2.60;;;38.10;31.40;37.60;101545;;;;583276;240;23025;-75
2023/04/10 07:19:57;;;;;;;4.28;2.90;;;38.20;31.40;37.80;101542;;;;583183;240;23022;-79
2023/04/10 07:22:26;;;;;;;3.22;2.95;;;38.30;31.40;37.80;101544;;;;579472;244;23107;-79
2023/04/10 07:24:53;;;;;;;2.97;2.75;;;38.40;31.10;38.10;101547;;;;583097;240;23155;-77
2023/04/10 07:27:23;;;;;;;4.22;3.40;;;38.60;31.00;38.40;101546;;;;586182;241;24057;-78
2023/04/10 07:29:49;;;;;;;4.47;3.58;;;38.80;30.70;38.30;101546;;;;573796;244;35079;-78
2023/04/10 07:32:17;;;;;;;5.57;3.45;;;38.90;30.00;37.80;101548;;;;576721;245;23068;-79
2023/04/10 07:34:46;;;;;;;3.37;3.17;;;38.70;30.20;38.00;101542;;;;589362;240;23080;-80
2023/04/10 07:37:13;;;;;;;5.30;3.28;;;38.70;30.80;38.10;101548;;;;577943;244;23094;-81
2023/04/10 07:39:41;;;;;;;4.15;3.10;;;38.70;30.50;38.70;101547;;;;577732;244;23077;-79
2023/04/10 07:42:13;;;;;;;3.05;2.85;;;39.20;29.90;38.20;101553;;;;578561;244;23101;-78
2023/04/10 07:44:40;;;;;;;3.97;2.72;;;39.10;29.70;38.10;101547;;;;598046;240;23027;-79
2023/04/10 07:47:08;;;;;;;3.05;2.37;;;38.80;30.10;38.70;101550;;;;574129;248;23066;-76
2023/04/10 07:49:36;;;;;;;2.85;2.65;;;39.10;29.90;39.10;101553;;;;569012;248;23050;-76
2023/04/10 07:52:03;;;;;;;2.67;2.58;;;39.50;30.00;39.40;101548;;;;579046;240;24023;-77
2023/04/10 07:54:34;;;;;;;5.10;2.95;;;39.90;29.60;39.90;101549;;;;579909;240;23064;-77
2023/04/10 07:57:00;;;;;;;2.62;2.35;;;40.40;29.30;40.00;101545;;;;579512;244;23042;-77
2023/04/10 07:59:27;;;;;;;2.58;2.47;;;40.70;28.70;39.80;101550;;;;579010;244;24058;-78
2023/04/10 08:01:55;;;;;;;3.25;2.50;;;40.60;29.00;39.90;101546;;;;577107;244;23009;-76
2023/04/10 08:04:24;;;;;;;2.50;2.33;;;40.80;28.80;40.10;101545;;;;578613;244;23025;-77
2023/04/10 08:06:56;;;;;;;2.67;2.47;;;41.10;29.40;40.40;101537;;;;579026;242;23019;-77
2023/04/10 08:09:20;;;;;;;2.83;2.55;;;41.00;28.80;40.80;101543;;;;579602;244;23020;-77
2023/04/10 08:11:48;;;;;;;3.15;2.90;;;41.50;28.20;39.80;101535;;;;579581;244;23129;-76
2023/04/10 08:14:16;;;;;;;2.90;2.70;;;41.20;28.30;39.00;101538;;;;579525;244;23084;-78
2023/04/10 08:16:44;;;;;;;4.45;3.20;;;40.40;28.90;38.90;101540;;;;582504;240;23048;-80
2023/04/10 08:19:12;;;;;;;2.70;2.60;;;40.10;28.80;38.30;101537;;;;590150;239;23021;-80
2023/04/10 08:21:40;;;;;;;2.95;2.70;;;39.70;28.60;38.00;101539;;;;580800;244;24089;-77
2023/04/10 08:24:08;;;;;;;2.78;2.20;;;39.20;29.30;37.70;101534;;;;579565;244;23052;-78
2023/04/10 08:26:36;;;;;;;2.95;2.58;;;38.90;29.10;37.80;101540;;;;588506;240;24057;-76
2023/04/10 08:29:04;;;;;;;2.78;2.58;;;38.80;28.90;37.40;101536;;;;562841;251;24109;-79
2023/04/10 08:31:32;;;;;;;2.47;2.37;;;38.60;29.20;37.60;101530;;;;570913;247;24068;-80
2023/04/10 08:34:02;;;;;;;3.95;2.90;;;38.60;29.30;38.00;101530;;;;562929;251;23117;-80
2023/04/10 08:36:31;;;;;;;3.67;3.10;;;39.10;29.30;38.20;101532;;;;571733;247;23144;-80
2023/04/10 08:38:56;;;;;;;3.05;2.83;;;39.10;29.30;38.40;101534;;;;563030;251;23088;-80
2023/04/10 08:41:24;;;;;;;3.53;3.22;;;39.30;29.10;38.50;101538;;;;571969;240;24046;-77
2023/04/10 08:43:52;;;;;;;3.08;2.87;;;39.50;29.00;38.90;101536;;;;587740;240;23035;-77
2023/04/10 08:46:21;;;;;;;2.97;2.78;;;39.90;29.20;39.30;101530;;;;587936;240;23103;-78
2023/04/10 08:49:03;;;;;;;3.45;3.15;;;40.30;28.80;39.30;101534;;;;572597;247;23097;-80
2023/04/10 08:51:45;;;;;;;2.87;2.67;;;40.50;28.40;39.10;101533;;;;561624;250;23133;-77
2023/04/10 08:54:10;;;;;;;3.33;2.80;;;40.60;28.00;39.00;101527;;;;566932;248;24129;-75
2023/04/10 08:56:38;;;;;;;3.37;2.70;;;40.50;28.20;39.20;101517;;;;564684;251;23095;-79
2023/04/10 08:59:06;;;;;;;5.10;3.08;;;40.60;28.50;38.90;101523;;;;570532;246;23136;-79
2023/04/10 09:01:35;;;;;;;2.95;2.75;;;40.60;28.30;38.40;101525;;;;570283;246;24150;-77
2023/04/10 09:04:02;;;;;;;2.87;2.62;;;40.30;28.10;36.70;101520;;;;567012;248;23099;-78
2023/04/10 09:06:30;;;;;;;3.22;3.03;;;39.50;28.20;36.10;101518;;;;573629;248;23083;-76
2023/04/10 09:09:01;;;;;;;3.70;3.05;;;38.40;28.70;35.90;101523;;;;569884;248;24110;-79
2023/04/10 09:11:29;;;;;;;2.80;2.60;;;37.80;28.70;35.90;101524;;;;569693;248;23090;-76
2023/04/10 09:13:58;;;;;;;3.40;3.17;;;37.60;28.80;35.50;101516;;;;577921;248;24119;-76
2023/04/10 09:16:26;;;;;;;4.80;2.87;;;37.50;29.30;35.80;101517;;;;569886;248;23077;-77
2023/04/10 09:18:54;;;;;;;4.12;3.72;;;37.50;29.30;36.30;101517;;;;584491;238;23065;-80
2023/04/10 09:21:22;;;;;;;5.65;4.00;;;37.90;28.90;36.70;101515;;;;580193;244;23113;-79
2023/04/10 09:23:51;;;;;;;4.80;4.40;;;38.80;28.80;37.30;101512;;;;579971;244;23032;-80
2023/04/10 09:26:24;;;;;;;4.93;4.00;;;38.80;28.80;37.40;101512;;;;587845;244;27317;-81
2023/04/10 09:29:01;;;;;;;3.97;3.58;;;39.00;28.10;36.20;101512;;;;579255;244;24071;-81
2023/04/10 09:31:40;;;;;;;4.20;3.87;;;38.50;28.30;35.90;101512;;;;579475;244;23111;-82
2023/04/10 09:34:14;;;;;;;3.53;3.33;;;38.00;28.50;36.00;101510;;;;579333;243;23110;-80
2023/04/10 09:36:42;;;;;;;4.05;3.17;;;37.90;28.80;36.00;101508;;;;577558;244;23052;-83
2023/04/10 09:39:14;;;;;;;3.58;3.10;;;38.00;29.00;36.00;101499;;;;587761;244;23033;-80
2023/04/10 09:41:55;;;;;;;3.22;2.95;;;38.00;28.90;36.60;101505;;;;576617;244;25175;-80
2023/04/10 09:44:32;;;;;;;5.60;2.70;;;38.40;28.60;36.20;101494;;;;578829;244;23049;-78
2023/04/10 09:47:05;;;;;;;3.58;3.28;;;38.50;28.10;36.30;101496;;;;587905;244;24111;-79
2023/04/10 09:49:33;;;;;;;2.70;2.50;;;38.40;28.00;36.10;101495;;;;563078;249;23092;-79
2023/04/10 09:52:01;;;;;;;3.12;2.83;;;38.30;28.50;36.80;101501;;;;586359;244;23049;-82
2023/04/10 09:54:38;;;;;;;3.33;3.12;;;38.80;28.60;36.90;101493;;;;585565;244;23072;-80
2023/04/10 09:57:03;;;;;;;8.18;3.30;;;39.20;28.40;36.80;101493;;;;563535;249;24130;-79
2023/04/10 09:59:35;;;;;;;3.03;2.83;;;39.20;28.70;36.80;101494;;;;578710;244;23090;-80
2023/04/10 10:02:00;;;;;;;5.53;3.42;;;39.40;29.00;37.10;101498;;;;576546;248;23071;-78
2023/04/10 10:04:31;;;;;;;4.12;2.78;;;39.40;29.00;38.20;101492;;;;575601;244;23063;-82
2023/04/10 10:06:56;;;;;;;2.97;2.67;;;40.10;28.40;37.50;101494;;;;586604;244;23075;-80
2023/04/10 10:09:27;;;;;;;3.62;3.33;;;40.10;28.10;36.70;101492;;;;580349;235;23076;-78
2023/04/10 10:11:52;;;;;;;3.62;2.87;;;39.30;28.40;35.20;101486;;;;597238;235;24056;-75
2023/04/10 10:14:20;;;;;;;3.37;3.15;;;38.30;28.70;33.90;101482;;;;592006;240;23037;-78
2023/04/10 10:16:51;;;;;;;3.45;3.15;;;36.70;29.70;32.00;101487;;;;589013;240;23046;-74
2023/04/10 10:19:42;;;;;;;3.60;3.30;;;34.80;30.70;29.00;101479;;;;588956;240;23136;-74
2023/04/10 10:22:10;;;;;;;3.12;2.83;;;32.00;32.60;26.70;101463;;;;588813;240;23045;-78
2023/04/10 10:24:38;;;;;;;3.17;2.70;;;29.20;34.90;25.40;101463;;;;587575;240;23109;-74
2023/04/10 10:27:06;;;;;;;3.13;2.80;;;27.30;37.00;24.00;101453;;;;587302;244;23070;-72
2023/04/10 10:29:34;;;;;;;4.10;3.53;;;25.60;38.80;22.80;101449;;;;578182;244;23082;-77
2023/04/10 10:32:02;;;;;;;6.97;3.23;;;24.20;41.50;22.10;101446;;;;579704;244;23106;-75
2023/04/10 10:34:35;;;;;;;4.07;2.90;;;22.50;43.50;21.50;101439;;;;579361;244;24087;-73
2023/04/10 10:37:00;;;;;;;3.77;2.63;;;21.80;45.00;20.80;101433;;;;579048;244;24123;-72
2023/04/10 10:39:59;;;;;;;3.17;2.80;;;21.10;46.20;20.10;101428;;;;578625;244;24132;-77
2023/04/10 10:42:46;;;;;;;3.07;2.77;;;20.30;47.90;19.40;101428;;;;583156;244;24066;-77
2023/04/10 10:45:23;;;;;;;2.80;2.60;;;20.20;47.80;18.50;101420;;;;587154;240;24079;-74
2023/04/10 10:47:51;;;;;;;5.10;3.87;;;19.30;49.30;18.00;101422;;;;571023;244;24126;-75
2023/04/10 10:50:22;;;;;;;4.07;2.50;;;18.70;50.80;17.50;101423;;;;567807;249;24101;-73
2023/04/10 10:52:48;;;;;;;2.67;2.47;;;18.10;51.50;17.10;101415;;;;574034;244;24042;-78
2023/04/10 10:55:23;;;;;;;3.23;2.20;;;17.30;54.00;16.80;101410;;;;581988;243;25119;-76
2023/04/10 10:57:53;;;;;;;4.13;2.83;;;17.20;53.90;16.50;101414;;;;569749;244;24112;-80
2023/04/10 11:00:17;;;;;;;5.67;2.97;;;16.90;55.50;16.10;101409;;;;573597;245;24149;-78
2023/04/10 11:02:45;;;;;;;2.57;2.10;;;16.60;56.70;15.60;101404;;;;565276;251;24142;-76
2023/04/10 11:05:59;;;;;;;2.37;2.17;;;16.20;58.00;15.10;101396;;;;571157;244;24082;-77
2023/04/10 11:08:34;;;;;;;3.33;2.73;;;15.80;59.40;14.70;101398;;;;576742;245;27325;-78
2023/04/10 11:11:01;;;;;;;4.13;2.93;;;15.40;61.00;14.50;101389;;;;575107;244;24099;-80
2023/04/10 11:13:28;;;;;;;5.03;2.97;;;15.10;61.50;14.30;101386;;;;565484;248;24093;-80
2023/04/10 11:16:00;;;;;;;2.60;2.17;;;14.90;62.60;14.10;101387;;;;578273;245;24037;-79
2023/04/10 11:18:49;;;;;;;5.30;2.60;;;14.70;62.90;14.00;101375;;;;576630;249;24099;-79